Pineland, Texas
Current Conditions -  °F | °C
As of 5:35 PM on Wednesday 22 Oct 2014 (Local Time) from KJAS Reporting Station
Clear Clear  
Wind Chill: 76°   Ceiling: Unl
Heat Index: 76°   Visibility: 10mi
Dew Point: 57°   Wind: 7mph
Humidity: 51%   Direction: 10°N
Pressure: 30.08"   Gusts: NA
Location:  31.25°N, 93.97°W
Report Text: KJAS 222235Z AUTO 01006KT 10SM CLR 24/14 A3008 RMK AO2 T02440138
Loading
Personal Weather Stations






























Interactive Weather Map
Tropical Storm Tracking
New forecast layout! Learn more

10-Day Weather Forecast

Advertisements
Track Severe Weather on mobile